Terminal Aerodrome Forecast
Issued by NWS

Home | Current Version | Previous Version | Text Only | Print | Product List | Glossary On
Versions: 1 2 3 4 5 6 7 8 9 10 11 12 13 14 15 16
696
FTAK31 PAJN 241136
TAFASI
TAF
PASI 241136Z 2412/2512 VRB04KT P6SM SCT020 OVC040
     FM242000 26008KT P6SM OVC040
     FM250300 31005KT P6SM FEW020 OVC040
     FM251000 VRB03KT P6SM BKN025 OVC040=

USA.gov is the U.S. government's official web portal to all federal, state and local government web resources and services.